Time,TemperatureF,DewpointF,PressureIn,WindDirection,WindDirectionDegrees,WindSpeedMPH,WindSpeedGustMPH,Humidity,HourlyPrecipIn,Conditions,Clouds,dailyrainin,SolarRadiationWatts/m^2,SoftwareType,DateUTC
2013-01-28 00:21:00,26.0,24.0,-100.00,SSW,213,8.0,12.0,93,0.00,,,0.01,1.000000,,2013-01-28 08:21:00,
2013-01-28 00:32:00,26.0,24.0,-100.00,SSW,213,8.0,12.0,93,0.00,,,0.01,1.000000,,2013-01-28 08:32:00,
2013-01-28 00:42:00,26.0,24.0,-100.00,SSW,213,8.0,12.0,93,0.00,,,0.01,1.000000,,2013-01-28 08:42:00,
2013-01-28 00:52:00,26.0,24.0,-100.00,SSW,213,8.0,12.0,93,0.00,,,0.01,1.000000,,2013-01-28 08:52:00,
2013-01-28 01:21:00,26.0,24.0,-100.00,SSW,211,7.0,14.0,93,0.00,,,0.01,1.000000,,2013-01-28 09:21:00,
2013-01-28 01:32:00,26.0,24.0,-100.00,SSW,211,7.0,14.0,93,0.00,,,0.01,1.000000,,2013-01-28 09:32:00,
2013-01-28 01:41:00,26.0,24.0,-100.00,SSW,211,7.0,14.0,93,0.00,,,0.01,1.000000,,2013-01-28 09:41:00,
2013-01-28 01:51:00,26.0,24.0,-100.00,SSW,211,7.0,14.0,93,0.00,,,0.01,1.000000,,2013-01-28 09:51:00,
2013-01-28 03:22:00,26.0,22.0,-100.00,WSW,243,5.0,10.0,85,-99.99,,,0.01,1.000000,,2013-01-28 11:22:00,
2013-01-28 03:32:00,26.0,22.0,-100.00,WSW,243,5.0,10.0,85,-99.99,,,0.01,1.000000,,2013-01-28 11:32:00,
2013-01-28 03:42:00,26.0,22.0,-100.00,WSW,243,5.0,10.0,85,-99.99,,,0.01,1.000000,,2013-01-28 11:42:00,
2013-01-28 03:52:00,26.0,22.0,-100.00,WSW,243,5.0,10.0,85,-99.99,,,0.01,1.000000,,2013-01-28 11:52:00,
2013-01-28 04:23:00,26.0,23.0,-100.00,South,176,4.0,9.0,87,0.00,,,0.01,1.000000,,2013-01-28 12:23:00,
2013-01-28 04:32:00,26.0,23.0,-100.00,South,176,4.0,9.0,87,0.00,,,0.01,1.000000,,2013-01-28 12:32:00,
2013-01-28 04:42:00,26.0,23.0,-100.00,South,176,4.0,9.0,87,0.00,,,0.01,1.000000,,2013-01-28 12:42:00,
2013-01-28 04:52:00,26.0,23.0,-100.00,South,176,4.0,9.0,87,0.00,,,0.01,1.000000,,2013-01-28 12:52:00,
2013-01-28 05:22:00,27.0,22.0,-100.00,SW,233,3.0,7.0,82,0.00,,,0.01,1.000000,,2013-01-28 13:22:00,
2013-01-28 05:33:00,27.0,22.0,-100.00,SW,233,3.0,7.0,82,0.00,,,0.01,1.000000,,2013-01-28 13:33:00,
2013-01-28 05:42:00,27.0,22.0,-100.00,SW,233,3.0,7.0,82,0.00,,,0.01,1.000000,,2013-01-28 13:42:00,
2013-01-28 05:52:00,27.0,22.0,-100.00,SW,233,3.0,7.0,82,0.00,,,0.01,1.000000,,2013-01-28 13:52:00,
2013-01-28 06:22:00,28.0,21.0,-100.00,WNW,293,6.0,16.0,74,0.00,,,0.01,1.000000,,2013-01-28 14:22:00,
2013-01-28 06:32:00,28.0,21.0,-100.00,WNW,293,6.0,16.0,74,0.00,,,0.01,1.000000,,2013-01-28 14:32:00,
2013-01-28 06:42:00,28.0,21.0,-100.00,WNW,293,6.0,16.0,74,0.00,,,0.01,1.000000,,2013-01-28 14:42:00,
2013-01-28 06:52:00,28.0,21.0,-100.00,WNW,293,6.0,16.0,74,0.00,,,0.01,1.000000,,2013-01-28 14:52:00,
2013-01-28 07:23:00,27.0,21.0,-100.00,West,277,8.0,12.0,79,0.00,,,0.01,1.000000,,2013-01-28 15:23:00,
2013-01-28 07:33:00,27.0,21.0,-100.00,West,277,8.0,12.0,79,0.00,,,0.01,1.000000,,2013-01-28 15:33:00,
2013-01-28 07:42:00,27.0,21.0,-100.00,West,277,8.0,12.0,79,0.00,,,0.01,1.000000,,2013-01-28 15:42:00,
2013-01-28 07:52:00,27.0,21.0,-100.00,West,277,8.0,12.0,79,0.00,,,0.01,1.000000,,2013-01-28 15:52:00,
2013-01-28 08:22:00,27.0,21.0,-100.00,West,262,6.0,13.0,78,0.00,,,0.01,7.000000,,2013-01-28 16:22:00,
2013-01-28 08:32:00,27.0,21.0,-100.00,West,262,6.0,13.0,78,0.00,,,0.01,7.000000,,2013-01-28 16:32:00,
2013-01-28 08:42:00,27.0,21.0,-100.00,West,262,6.0,13.0,78,0.00,,,0.01,7.000000,,2013-01-28 16:42:00,
2013-01-28 08:52:00,27.0,21.0,-100.00,West,262,6.0,13.0,78,0.00,,,0.01,7.000000,,2013-01-28 16:52:00,
2013-01-28 10:23:00,31.0,23.0,-100.00,West,260,7.0,11.0,72,-99.99,,,0.00,158.000000,,2013-01-28 18:23:00,
2013-01-28 10:33:00,31.0,23.0,-100.00,West,260,7.0,11.0,72,-99.99,,,0.00,158.000000,,2013-01-28 18:33:00,
2013-01-28 10:42:00,31.0,23.0,-100.00,West,260,7.0,11.0,72,-99.99,,,0.00,158.000000,,2013-01-28 18:42:00,
2013-01-28 10:52:00,31.0,23.0,-100.00,West,260,7.0,11.0,72,-99.99,,,0.00,158.000000,,2013-01-28 18:52:00,
2013-01-28 11:22:00,34.0,22.0,-100.00,WNW,282,8.0,14.0,62,0.00,,,0.00,259.000000,,2013-01-28 19:22:00,
2013-01-28 11:32:00,34.0,22.0,-100.00,WNW,282,8.0,14.0,62,0.00,,,0.00,259.000000,,2013-01-28 19:32:00,
2013-01-28 11:42:00,34.0,22.0,-100.00,WNW,282,8.0,14.0,62,0.00,,,0.00,259.000000,,2013-01-28 19:42:00,
2013-01-28 11:52:00,34.0,22.0,-100.00,WNW,282,8.0,14.0,62,0.00,,,0.00,259.000000,,2013-01-28 19:52:00,
2013-01-28 12:22:00,34.0,22.0,-100.00,West,275,9.0,16.0,62,0.00,,,0.00,275.000000,,2013-01-28 20:22:00,
2013-01-28 12:33:00,34.0,22.0,-100.00,West,275,9.0,16.0,62,0.00,,,0.00,275.000000,,2013-01-28 20:33:00,
2013-01-28 12:42:00,34.0,22.0,-100.00,West,275,9.0,16.0,62,0.00,,,0.00,275.000000,,2013-01-28 20:42:00,
2013-01-28 12:52:00,34.0,22.0,-100.00,West,275,9.0,16.0,62,0.00,,,0.00,275.000000,,2013-01-28 20:52:00,
2013-01-28 13:22:00,35.0,23.0,-100.00,West,280,10.0,18.0,62,0.00,,,0.00,251.000000,,2013-01-28 21:22:00,
2013-01-28 13:33:00,35.0,23.0,-100.00,West,280,10.0,18.0,62,0.00,,,0.00,251.000000,,2013-01-28 21:33:00,
2013-01-28 13:42:00,35.0,23.0,-100.00,West,280,10.0,18.0,62,0.00,,,0.00,251.000000,,2013-01-28 21:42:00,
2013-01-28 13:52:00,35.0,23.0,-100.00,West,280,10.0,18.0,62,0.00,,,0.00,251.000000,,2013-01-28 21:52:00,
2013-01-28 14:22:00,35.0,24.0,-100.00,West,263,8.0,20.0,63,0.00,,,0.00,296.000000,,2013-01-28 22:22:00,
2013-01-28 14:32:00,35.0,24.0,-100.00,West,263,8.0,20.0,63,0.00,,,0.00,296.000000,,2013-01-28 22:32:00,
2013-01-28 14:42:00,35.0,24.0,-100.00,West,263,8.0,20.0,63,0.00,,,0.00,296.000000,,2013-01-28 22:42:00,
2013-01-28 14:52:00,35.0,24.0,-100.00,West,263,8.0,20.0,63,0.00,,,0.00,296.000000,,2013-01-28 22:52:00,
2013-01-28 15:22:00,34.0,23.0,-100.00,WSW,252,5.0,14.0,65,0.00,,,0.00,156.000000,,2013-01-28 23:22:00,
2013-01-28 15:32:00,34.0,23.0,-100.00,WSW,252,5.0,14.0,65,0.00,,,0.00,156.000000,,2013-01-28 23:32:00,
2013-01-28 15:42:00,34.0,23.0,-100.00,WSW,252,5.0,14.0,65,0.00,,,0.00,156.000000,,2013-01-28 23:42:00,
2013-01-28 15:52:00,34.0,23.0,-100.00,WSW,252,5.0,14.0,65,0.00,,,0.00,156.000000,,2013-01-28 23:52:00,
2013-01-28 16:22:00,34.0,24.0,-100.00,WSW,244,6.0,10.0,66,0.00,,,0.00,87.000000,,2013-01-29 00:22:00,
2013-01-28 16:32:00,34.0,24.0,-100.00,WSW,244,6.0,10.0,66,0.00,,,0.00,87.000000,,2013-01-29 00:32:00,
2013-01-28 16:42:00,34.0,24.0,-100.00,WSW,244,6.0,10.0,66,0.00,,,0.00,87.000000,,2013-01-29 00:42:00,
2013-01-28 16:51:00,34.0,24.0,-100.00,WSW,244,6.0,10.0,66,0.00,,,0.00,87.000000,,2013-01-29 00:51:00,
2013-01-28 17:22:00,33.0,26.0,-100.00,SW,232,8.0,19.0,74,0.00,,,0.00,123.000000,,2013-01-29 01:22:00,
2013-01-28 17:32:00,33.0,26.0,-100.00,SW,232,8.0,19.0,74,0.00,,,0.00,123.000000,,2013-01-29 01:32:00,
2013-01-28 17:42:00,33.0,26.0,-100.00,SW,232,8.0,19.0,74,0.00,,,0.00,123.000000,,2013-01-29 01:42:00,
2013-01-28 17:52:00,33.0,26.0,-100.00,SW,232,8.0,19.0,74,0.00,,,0.00,123.000000,,2013-01-29 01:52:00,
2013-01-28 18:21:00,32.0,26.0,-100.00,SW,225,8.0,12.0,79,0.00,,,0.00,9.000000,,2013-01-29 02:21:00,
2013-01-28 18:32:00,32.0,26.0,-100.00,SW,225,8.0,12.0,79,0.00,,,0.00,9.000000,,2013-01-29 02:32:00,
2013-01-28 18:41:00,32.0,26.0,-100.00,SW,225,8.0,12.0,79,0.00,,,0.00,9.000000,,2013-01-29 02:41:00,
2013-01-28 18:52:00,32.0,26.0,-100.00,SW,225,8.0,12.0,79,0.00,,,0.00,9.000000,,2013-01-29 02:52:00,
2013-01-28 19:21:00,32.0,25.0,-100.00,WSW,246,8.0,14.0,76,0.00,,,0.00,1.000000,,2013-01-29 03:21:00,
2013-01-28 19:32:00,32.0,25.0,-100.00,WSW,246,8.0,14.0,76,0.00,,,0.00,1.000000,,2013-01-29 03:32:00,
2013-01-28 19:42:00,32.0,25.0,-100.00,WSW,246,8.0,14.0,76,0.00,,,0.00,1.000000,,2013-01-29 03:42:00,
2013-01-28 19:52:00,32.0,25.0,-100.00,WSW,246,8.0,14.0,76,0.00,,,0.00,1.000000,,2013-01-29 03:52:00,
2013-01-28 20:21:00,32.0,25.0,-100.00,WSW,240,5.0,21.0,75,0.00,,,0.00,1.000000,,2013-01-29 04:21:00,
2013-01-28 20:32:00,32.0,25.0,-100.00,WSW,240,5.0,21.0,75,0.00,,,0.00,1.000000,,2013-01-29 04:32:00,
2013-01-28 20:41:00,32.0,25.0,-100.00,WSW,240,5.0,21.0,75,0.00,,,0.00,1.000000,,2013-01-29 04:41:00,
2013-01-28 20:51:00,32.0,25.0,-100.00,WSW,240,5.0,21.0,75,0.00,,,0.00,1.000000,,2013-01-29 04:51:00,
2013-01-28 21:21:00,32.0,23.0,-100.00,West,262,12.0,23.0,70,0.00,,,0.00,1.000000,,2013-01-29 05:21:00,
2013-01-28 21:32:00,32.0,23.0,-100.00,West,262,12.0,23.0,70,0.00,,,0.00,1.000000,,2013-01-29 05:32:00,
2013-01-28 21:42:00,32.0,23.0,-100.00,West,262,12.0,23.0,70,0.00,,,0.00,1.000000,,2013-01-29 05:42:00,
2013-01-28 21:52:00,32.0,23.0,-100.00,West,262,12.0,23.0,70,0.00,,,0.00,1.000000,,2013-01-29 05:52:00,
2013-01-28 22:21:00,31.0,23.0,-100.00,WSW,241,8.0,19.0,72,0.00,,,0.00,1.000000,,2013-01-29 06:21:00,
2013-01-28 22:31:00,31.0,23.0,-100.00,WSW,241,8.0,19.0,72,0.00,,,0.00,1.000000,,2013-01-29 06:31:00,
2013-01-28 22:41:00,31.0,23.0,-100.00,WSW,241,8.0,19.0,72,0.00,,,0.00,1.000000,,2013-01-29 06:41:00,
2013-01-28 22:52:00,31.0,23.0,-100.00,WSW,241,8.0,19.0,72,0.00,,,0.00,1.000000,,2013-01-29 06:52:00,
2013-01-28 23:21:00,32.0,23.0,-100.00,WSW,248,10.0,24.0,68,0.00,,,0.00,1.000000,,2013-01-29 07:21:00,
2013-01-28 23:31:00,32.0,23.0,-100.00,WSW,248,10.0,24.0,68,0.00,,,0.00,1.000000,,2013-01-29 07:31:00,
2013-01-28 23:41:00,32.0,23.0,-100.00,WSW,248,10.0,24.0,68,0.00,,,0.00,1.000000,,2013-01-29 07:41:00,
2013-01-28 23:51:00,32.0,23.0,-100.00,WSW,248,10.0,24.0,68,0.00,,,0.00,1.000000,,2013-01-29 07:51:00,